createdAt,value
2023-04-19T00:01:54.248Z,99457.44
2023-04-19T00:04:22.350Z,99456.06
2023-04-19T00:06:51.998Z,99452.84
2023-04-19T00:09:20.336Z,99450.34
2023-04-19T00:11:48.375Z,99456.06
2023-04-19T00:14:16.619Z,99451.59
2023-04-19T00:16:45.146Z,99450.91
2023-04-19T00:19:13.092Z,99448.94
2023-04-19T00:21:41.394Z,99445.59
2023-04-19T00:24:09.459Z,99444.75
2023-04-19T00:26:37.461Z,99438.88
2023-04-19T00:29:05.770Z,99433.03
2023-04-19T00:31:34.639Z,99435.69
2023-04-19T00:34:03.210Z,99430.63
2023-04-19T00:36:31.439Z,99435.00
2023-04-19T00:38:59.336Z,99423.50
2023-04-19T00:41:27.142Z,99426.03
2023-04-19T00:43:55.423Z,99423.22
2023-04-19T00:46:23.813Z,99415.41
2023-04-19T00:48:52.330Z,99414.28
2023-04-19T00:51:20.701Z,99423.94
2023-04-19T00:53:49.621Z,99414.56
2023-04-19T00:56:24.201Z,99417.63
2023-04-19T00:58:55.751Z,99423.22
2023-04-19T01:01:23.728Z,99414.00
2023-04-19T01:03:51.940Z,99411.50
2023-04-19T01:06:22.244Z,99415.13
2023-04-19T01:08:50.269Z,99410.13
2023-04-19T01:11:18.212Z,99405.34
2023-04-19T01:13:46.387Z,99402.00
2023-04-19T01:16:14.465Z,99403.13
2023-04-19T01:18:45.658Z,99401.44
2023-04-19T01:21:13.620Z,99396.44
2023-04-19T01:23:41.635Z,99401.19
2023-04-19T01:26:09.573Z,99403.97
2023-04-19T01:28:39.444Z,99398.13
2023-04-19T01:31:07.454Z,99400.63
2023-04-19T01:33:35.521Z,99409.03
2023-04-19T01:36:04.507Z,99406.38
2023-04-19T01:38:32.553Z,99399.25
2023-04-19T01:41:00.379Z,99399.38
2023-04-19T01:43:28.375Z,99395.31
2023-04-19T01:45:56.835Z,99391.44
2023-04-19T01:48:24.664Z,99384.31
2023-04-19T01:50:52.966Z,99380.66
2023-04-19T01:53:20.903Z,99381.50
2023-04-19T01:55:50.847Z,99380.41
2023-04-19T01:58:18.820Z,99368.38
2023-04-19T02:00:47.124Z,99379.25
2023-04-19T02:03:15.349Z,99365.56
2023-04-19T02:05:44.122Z,99369.31
2023-04-19T02:08:12.067Z,99370.88
2023-04-19T02:10:39.918Z,99365.69
2023-04-19T02:13:07.988Z,99364.16
2023-04-19T02:15:37.977Z,99367.13
2023-04-19T02:18:07.084Z,99363.72
2023-04-19T02:20:35.459Z,99362.88
2023-04-19T02:23:04.812Z,99363.00
2023-04-19T02:25:32.723Z,99364.47
2023-04-19T02:28:00.745Z,99355.06
2023-04-19T02:30:28.592Z,99356.59
2023-04-19T02:32:56.670Z,99352.25
2023-04-19T02:35:27.411Z,99346.13
2023-04-19T02:37:55.290Z,99344.97
2023-04-19T02:40:25.678Z,99345.69
2023-04-19T02:42:53.827Z,99343.47
2023-04-19T02:45:23.171Z,99340.25
2023-04-19T02:47:51.130Z,99341.47
2023-04-19T02:50:19.876Z,99335.38
2023-04-19T02:52:51.361Z,99333.09
2023-04-19T02:55:21.056Z,99331.44
2023-04-19T02:57:55.022Z,99330.88
2023-04-19T03:00:23.216Z,99323.50
2023-04-19T03:03:04.866Z,99324.88
2023-04-19T03:05:34.381Z,99319.00
2023-04-19T03:08:02.282Z,99306.97
2023-04-19T03:10:30.749Z,99318.28
2023-04-19T03:12:58.609Z,99309.63
2023-04-19T03:15:27.093Z,99314.50
2023-04-19T03:17:55.273Z,99310.34
2023-04-19T03:20:23.839Z,99310.47
2023-04-19T03:22:51.838Z,99313.94
2023-04-19T03:25:20.776Z,99310.63
2023-04-19T03:27:57.113Z,99305.56
2023-04-19T03:30:46.332Z,99310.28
2023-04-19T03:33:14.236Z,99311.00
2023-04-19T03:35:44.852Z,99310.88
2023-04-19T03:38:13.201Z,99308.50
2023-04-19T03:40:41.221Z,99306.69
2023-04-19T03:43:12.041Z,99307.22
2023-04-19T03:45:40.860Z,99309.72
2023-04-19T03:48:09.163Z,99307.94
2023-04-19T03:50:37.637Z,99300.25
2023-04-19T03:53:06.360Z,99295.91
2023-04-19T03:55:34.295Z,99293.16
2023-04-19T03:58:02.751Z,99295.22
2023-04-19T04:00:41.475Z,99296.91
2023-04-19T04:03:09.840Z,99298.56
2023-04-19T04:05:38.981Z,99294.81
2023-04-19T04:08:07.331Z,99296.91
2023-04-19T04:10:35.568Z,99300.53
2023-04-19T04:13:03.480Z,99298.56
2023-04-19T04:15:42.912Z,99301.22
2023-04-19T04:18:13.391Z,99302.91
2023-04-19T04:20:43.475Z,99301.22
2023-04-19T04:23:14.539Z,99302.34
2023-04-19T04:25:55.979Z,99308.91
2023-04-19T04:28:24.393Z,99305.84
2023-04-19T04:30:52.401Z,99314.78
2023-04-19T04:33:20.578Z,99306.84
2023-04-19T04:35:49.219Z,99307.81
2023-04-19T04:38:25.121Z,99309.34
2023-04-19T04:40:56.346Z,99304.75
2023-04-19T04:43:29.083Z,99311.28
2023-04-19T04:45:58.331Z,99310.72
2023-04-19T04:48:31.788Z,99312.50
2023-04-19T04:51:00.037Z,99312.28
2023-04-19T04:53:29.762Z,99312.50
2023-04-19T04:56:00.132Z,99317.28
2023-04-19T04:58:28.303Z,99314.47
2023-04-19T05:01:07.744Z,99315.34
2023-04-19T05:03:40.802Z,99316.72
2023-04-19T05:06:14.083Z,99314.50
2023-04-19T05:08:42.587Z,99311.72
2023-04-19T05:11:17.944Z,99312.28
2023-04-19T05:13:46.789Z,99314.69
2023-04-19T05:16:15.643Z,99318.44
2023-04-19T05:18:46.809Z,99318.16
2023-04-19T05:21:15.127Z,99317.03
2023-04-19T05:23:43.744Z,99314.78
2023-04-19T05:26:15.728Z,99317.03
2023-04-19T05:28:44.991Z,99323.75
2023-04-19T05:31:30.489Z,99315.34
2023-04-19T05:34:21.987Z,99313.13
2023-04-19T05:36:51.883Z,99310.91
2023-04-19T05:39:19.823Z,99312.88
2023-04-19T05:41:48.883Z,99312.31
2023-04-19T05:44:17.191Z,99317.78
2023-04-19T05:46:45.347Z,99311.50
2023-04-19T05:49:17.096Z,99320.97
2023-04-19T05:52:17.180Z,99317.94
2023-04-19T05:54:51.818Z,99315.81
2023-04-19T05:57:19.987Z,99323.50
2023-04-19T05:59:48.101Z,99323.09
2023-04-19T06:02:20.857Z,99319.63
2023-04-19T06:04:49.627Z,99315.47
2023-04-19T06:07:30.969Z,99317.25
2023-04-19T06:10:01.059Z,99316.81
2023-04-19T06:12:29.092Z,99317.25
2023-04-19T06:14:57.190Z,99324.63
2023-04-19T06:17:26.543Z,99317.38
2023-04-19T06:19:55.613Z,99318.78
2023-04-19T06:22:24.046Z,99321.31
2023-04-19T06:24:52.553Z,99316.09
2023-04-19T06:27:20.436Z,99318.16
2023-04-19T06:29:50.543Z,99310.19
2023-04-19T06:32:19.448Z,99310.69
2023-04-19T06:34:47.785Z,99314.59
2023-04-19T06:37:15.646Z,99313.03
2023-04-19T06:39:43.941Z,99317.31
2023-04-19T06:42:12.577Z,99317.66
2023-04-19T06:44:40.563Z,99319.47
2023-04-19T06:47:09.785Z,99315.78
2023-04-19T06:49:38.091Z,99317.19
2023-04-19T06:52:06.313Z,99315.84
2023-04-19T06:54:34.351Z,99308.13
2023-04-19T06:57:02.757Z,99319.00
2023-04-19T06:59:32.385Z,99314.72
2023-04-19T07:02:00.497Z,99316.16
2023-04-19T07:04:28.518Z,99318.06
2023-04-19T07:06:57.626Z,99315.94
2023-04-19T07:09:25.673Z,99322.25
2023-04-19T07:11:53.815Z,99324.09
2023-04-19T07:14:21.901Z,99319.72
2023-04-19T07:16:50.951Z,99322.69
2023-04-19T07:19:21.131Z,99328.19
2023-04-19T07:21:49.189Z,99331.91
2023-04-19T07:24:17.890Z,99329.53
2023-04-19T07:26:46.079Z,99328.63
2023-04-19T07:29:14.851Z,99332.72
2023-04-19T07:31:43.304Z,99330.91
2023-04-19T07:34:11.226Z,99335.25
2023-04-19T07:36:39.164Z,99332.94
2023-04-19T07:39:07.431Z,99342.31
2023-04-19T07:41:36.282Z,99337.47
2023-04-19T07:44:04.557Z,99343.16
2023-04-19T07:46:32.666Z,99345.34
2023-04-19T07:49:00.632Z,99348.63
2023-04-19T07:51:28.900Z,99354.78
2023-04-19T07:53:57.209Z,99346.94
2023-04-19T07:56:27.035Z,99351.00
2023-04-19T07:59:06.956Z,99348.69
2023-04-19T08:01:37.359Z,99348.53
2023-04-19T08:04:05.901Z,99351.56
2023-04-19T08:06:34.766Z,99345.41
2023-04-19T08:09:03.534Z,99348.97
2023-04-19T08:11:32.116Z,99348.38
2023-04-19T08:14:09.325Z,99338.56
2023-04-19T08:17:19.595Z,99338.94
2023-04-19T08:19:32.177Z,99337.19
2023-04-19T08:22:00.434Z,99345.22
2023-04-19T08:24:28.409Z,99339.00
2023-04-19T08:26:58.208Z,99341.41
2023-04-19T08:29:27.824Z,99340.63
2023-04-19T08:31:55.816Z,99335.94
2023-04-19T08:34:23.843Z,99343.13
2023-04-19T08:37:03.318Z,99342.69
2023-04-19T08:39:34.623Z,99341.94
2023-04-19T08:42:13.341Z,99338.66
2023-04-19T08:47:29.589Z,99327.06
2023-04-19T08:50:20.312Z,99332.56
2023-04-19T08:52:58.707Z,99320.06
2023-04-19T08:55:30.093Z,99319.03
2023-04-19T08:57:58.944Z,99327.41
2023-04-19T09:00:27.040Z,99322.41
2023-04-19T09:02:56.117Z,99325.75
2023-04-19T09:05:26.264Z,99322.41
2023-04-19T09:07:54.576Z,99314.41
2023-04-19T09:10:22.760Z,99322.41
2023-04-19T09:13:03.209Z,99323.94
2023-04-19T09:15:40.345Z,99317.91
2023-04-19T09:18:10.503Z,99318.75
2023-04-19T09:20:41.178Z,99315.56
2023-04-19T09:23:15.590Z,99322.56
2023-04-19T09:26:21.918Z,99330.78
2023-04-19T09:29:06.595Z,99321.09
2023-04-19T09:34:14.821Z,99311.56
2023-04-19T09:36:43.134Z,99316.72
2023-04-19T09:39:11.562Z,99306.53
2023-04-19T09:41:55.700Z,99301.47
2023-04-19T09:46:56.066Z,99288.28
2023-04-19T09:49:37.363Z,99288.84
2023-04-19T09:52:15.282Z,99282.84
2023-04-19T09:54:44.283Z,99276.13
2023-04-19T09:57:12.715Z,99277.19
2023-04-19T09:59:40.833Z,99273.97
2023-04-19T10:02:13.143Z,99273.63
2023-04-19T10:04:59.753Z,99258.44
2023-04-19T10:07:32.855Z,99263.50
2023-04-19T10:10:15.813Z,99263.38
2023-04-19T10:15:24.494Z,99255.56
2023-04-19T10:17:52.786Z,99246.34
2023-04-19T10:20:32.953Z,99248.81
2023-04-19T10:23:01.435Z,99250.59
2023-04-19T10:25:31.090Z,99241.44
2023-04-19T10:27:59.330Z,99240.22
2023-04-19T10:30:27.622Z,99243.09
2023-04-19T10:32:59.433Z,99242.25
2023-04-19T10:35:37.700Z,99246.50
2023-04-19T10:38:19.753Z,99252.75
2023-04-19T10:40:56.742Z,99235.81
2023-04-19T10:43:26.971Z,99238.72
2023-04-19T10:45:55.957Z,99245.81
2023-04-19T10:48:31.095Z,99246.16
2023-04-19T10:51:16.701Z,99230.47
2023-04-19T10:54:10.187Z,99237.09
2023-04-19T10:56:39.479Z,99237.44
2023-04-19T10:59:13.666Z,99230.09
2023-04-19T11:01:45.777Z,99233.13
2023-04-19T11:04:20.316Z,99231.25
2023-04-19T11:06:54.218Z,99219.66
2023-04-19T11:09:42.492Z,99219.59
2023-04-19T11:12:16.235Z,99240.97
2023-04-19T11:14:59.993Z,99259.84
2023-04-19T11:17:32.104Z,99275.16
2023-04-19T11:20:12.208Z,99277.28
2023-04-19T11:22:42.837Z,99272.25
2023-04-19T11:25:16.774Z,99266.06
2023-04-19T11:27:49.622Z,99267.97
2023-04-19T11:30:23.086Z,99271.69
2023-04-19T11:32:54.356Z,99268.41
2023-04-19T11:35:30.752Z,99265.13
2023-04-19T11:38:00.041Z,99253.81
2023-04-19T11:40:28.516Z,99248.03
2023-04-19T11:43:06.527Z,99240.78
2023-04-19T11:45:39.746Z,99237.84
2023-04-19T11:48:18.126Z,99236.66
2023-04-19T11:50:49.584Z,99226.66
2023-04-19T11:53:22.995Z,99226.81
2023-04-19T11:55:57.670Z,99218.09
2023-04-19T11:58:44.852Z,99209.97
2023-04-19T12:01:16.798Z,99195.50
2023-04-19T12:03:56.914Z,99199.06
2023-04-19T12:06:33.505Z,99213.19
2023-04-19T12:09:08.372Z,99213.59
2023-04-19T12:11:45.930Z,99202.03
2023-04-19T12:14:17.505Z,99202.97
2023-04-19T12:16:46.607Z,99201.81
2023-04-19T12:19:20.826Z,99194.44
2023-04-19T12:21:48.880Z,99192.72
2023-04-19T12:24:17.553Z,99197.56
2023-04-19T12:27:00.597Z,99202.78
2023-04-19T12:29:30.743Z,99188.97
2023-04-19T12:31:58.753Z,99188.06
2023-04-19T12:34:26.796Z,99204.56
2023-04-19T12:36:56.603Z,99198.03
2023-04-19T12:39:24.932Z,99192.09
2023-04-19T12:41:54.482Z,99185.47
2023-04-19T12:44:22.568Z,99188.31
2023-04-19T12:46:50.549Z,99194.16
2023-04-19T12:49:22.161Z,99188.28
2023-04-19T12:51:50.408Z,99195.75
2023-04-19T12:54:18.419Z,99194.13
2023-04-19T12:56:46.560Z,99202.28
2023-04-19T12:59:14.832Z,99202.69
2023-04-19T13:01:43.094Z,99187.91
2023-04-19T13:04:12.165Z,99188.22
2023-04-19T13:06:40.968Z,99192.41
2023-04-19T13:11:40.286Z,99195.63
2023-04-19T13:14:08.357Z,99186.63
2023-04-19T13:16:36.533Z,99191.41
2023-04-19T13:19:04.690Z,99185.47
2023-04-19T13:21:32.632Z,99181.88
2023-04-19T13:24:00.598Z,99187.97
2023-04-19T13:26:28.832Z,99193.69
2023-04-19T13:28:56.913Z,99187.97
2023-04-19T13:31:25.513Z,99190.69
2023-04-19T13:33:54.418Z,99192.97
2023-04-19T13:36:22.366Z,99195.75
2023-04-19T13:38:50.345Z,99193.16
2023-04-19T13:41:18.611Z,99199.81
2023-04-19T13:43:47.414Z,99212.78
2023-04-19T13:46:15.680Z,99203.06
2023-04-19T13:48:43.932Z,99209.19
2023-04-19T13:51:13.104Z,99205.59
2023-04-19T13:53:42.726Z,99225.91
2023-04-19T13:56:11.448Z,99229.50
2023-04-19T13:58:39.459Z,99230.69
2023-04-19T14:01:08.245Z,99233.47
2023-04-19T14:03:37.031Z,99228.81
2023-04-19T14:06:05.412Z,99212.41
2023-04-19T14:08:33.358Z,99218.28
2023-04-19T14:11:01.639Z,99232.72
2023-04-19T14:13:29.523Z,99219.03
2023-04-19T14:15:57.895Z,99224.03
2023-04-19T14:18:26.649Z,99219.50
2023-04-19T14:20:55.534Z,99221.47
2023-04-19T14:23:23.781Z,99218.13
2023-04-19T14:25:51.902Z,99210.91
2023-04-19T14:28:19.925Z,99221.78
2023-04-19T14:30:48.175Z,99231.69
2023-04-19T14:33:16.554Z,99242.91
2023-04-19T14:35:45.058Z,99250.28
2023-04-19T14:38:13.048Z,99242.09
2023-04-19T14:40:41.322Z,99235.28
2023-04-19T14:43:11.581Z,99229.19
2023-04-19T14:45:41.095Z,99236.25
2023-04-19T14:48:09.491Z,99225.78
2023-04-19T14:50:38.305Z,99231.59
2023-04-19T14:53:07.557Z,99230.97
2023-04-19T14:55:39.059Z,99233.53
2023-04-19T14:58:08.679Z,99232.03
2023-04-19T15:00:37.952Z,99242.81
2023-04-19T15:03:07.489Z,99256.47
2023-04-19T15:05:42.586Z,99259.13
2023-04-19T15:08:29.040Z,99262.00
2023-04-19T15:10:58.273Z,99277.44
2023-04-19T15:13:27.085Z,99266.22
2023-04-19T15:15:55.416Z,99269.56
2023-04-19T15:18:23.654Z,99274.69
2023-04-19T15:20:51.818Z,99289.75
2023-04-19T15:23:25.335Z,99286.31
2023-04-19T15:25:53.694Z,99300.56
2023-04-19T15:28:23.622Z,99300.47
2023-04-19T15:31:01.678Z,99307.31
2023-04-19T15:33:30.336Z,99300.41
2023-04-19T15:35:59.448Z,99306.78
2023-04-19T15:38:31.193Z,99328.72
2023-04-19T15:41:00.514Z,99328.84
2023-04-19T15:43:28.713Z,99337.28
2023-04-19T15:45:56.745Z,99332.84
2023-04-19T15:48:24.908Z,99338.66
2023-04-19T15:50:52.877Z,99329.16
2023-04-19T15:53:21.032Z,99338.00
2023-04-19T15:55:49.238Z,99328.88
2023-04-19T15:58:17.236Z,99340.97
2023-04-19T16:00:45.740Z,99348.88
2023-04-19T16:03:14.046Z,99358.06
2023-04-19T16:05:42.301Z,99353.91
2023-04-19T16:08:12.025Z,99355.00
2023-04-19T16:10:40.294Z,99355.00
2023-04-19T16:13:08.285Z,99358.84
2023-04-19T16:15:36.835Z,99364.19
2023-04-19T16:18:05.037Z,99366.34
2023-04-19T16:20:33.159Z,99361.19
2023-04-19T16:23:03.739Z,99364.63
2023-04-19T16:25:32.597Z,99364.66
2023-04-19T16:28:01.367Z,99367.84
2023-04-19T16:30:29.598Z,99365.81
2023-04-19T16:32:59.016Z,99378.84
2023-04-19T16:35:27.341Z,99371.34
2023-04-19T16:37:57.750Z,99371.53
2023-04-19T16:40:26.285Z,99381.56
2023-04-19T16:42:54.630Z,99385.88
2023-04-19T16:45:22.729Z,99393.41
2023-04-19T16:47:50.847Z,99395.59
2023-04-19T16:50:20.490Z,99399.59
2023-04-19T16:52:48.892Z,99394.72
2023-04-19T16:55:16.924Z,99398.25
2023-04-19T16:57:45.096Z,99401.72
2023-04-19T17:00:14.363Z,99400.56
2023-04-19T17:02:42.404Z,99401.22
2023-04-19T17:05:12.731Z,99407.09
2023-04-19T17:07:40.909Z,99409.25
2023-04-19T17:10:09.517Z,99409.72
2023-04-19T17:12:37.784Z,99409.88
2023-04-19T17:15:06.524Z,99417.72
2023-04-19T17:17:34.626Z,99414.38
2023-04-19T17:20:04.385Z,99427.38
2023-04-19T17:22:33.264Z,99427.81
2023-04-19T17:25:01.164Z,99423.78
2023-04-19T17:27:29.277Z,99433.25
2023-04-19T17:29:57.232Z,99436.06
2023-04-19T17:32:25.170Z,99431.69
2023-04-19T17:34:53.165Z,99440.38
2023-04-19T17:37:21.482Z,99448.88
2023-04-19T17:39:49.531Z,99450.34
2023-04-19T17:42:17.592Z,99447.66
2023-04-19T17:44:46.062Z,99458.59
2023-04-19T17:47:13.956Z,99462.97
2023-04-19T17:49:46.276Z,99459.28
2023-04-19T17:52:14.717Z,99468.84
2023-04-19T17:54:42.813Z,99474.63
2023-04-19T17:57:10.852Z,99474.63
2023-04-19T17:59:39.034Z,99471.91
2023-04-19T18:02:09.673Z,99479.06
2023-04-19T18:04:39.558Z,99478.84
2023-04-19T18:07:08.027Z,99487.31
2023-04-19T18:09:36.988Z,99485.34
2023-04-19T18:12:05.934Z,99488.69
2023-04-19T18:14:36.109Z,99491.38
2023-04-19T18:17:05.663Z,99493.19
2023-04-19T18:19:34.623Z,99502.47
2023-04-19T18:22:03.121Z,99503.63
2023-04-19T18:24:32.453Z,99501.66
2023-04-19T18:27:03.951Z,99507.97
2023-04-19T18:29:31.882Z,99507.75
2023-04-19T18:32:18.740Z,99516.06
2023-04-19T18:34:47.468Z,99504.47
2023-04-19T18:37:17.217Z,99512.75
2023-04-19T18:39:45.998Z,99509.97
2023-04-19T18:42:14.063Z,99512.25
2023-04-19T18:47:12.827Z,99513.38
2023-04-19T18:49:42.542Z,99514.50
2023-04-19T18:52:15.130Z,99511.34
2023-04-19T18:54:43.566Z,99510.47
2023-04-19T18:57:23.289Z,99507.72
2023-04-19T18:59:57.232Z,99514.59
2023-04-19T19:02:27.543Z,99514.88
2023-04-19T19:05:00.621Z,99513.34
2023-04-19T19:10:10.741Z,99512.00
2023-04-19T19:12:46.083Z,99506.94
2023-04-19T19:15:14.849Z,99505.44
2023-04-19T19:17:49.364Z,99513.97
2023-04-19T19:20:19.932Z,99519.28
2023-04-19T19:22:48.603Z,99512.28
2023-04-19T19:25:16.917Z,99515.41
2023-04-19T19:28:02.863Z,99514.53
2023-04-19T19:30:40.109Z,99521.56
2023-04-19T19:33:08.547Z,99522.09
2023-04-19T19:35:40.087Z,99520.72
2023-04-19T19:38:09.646Z,99522.66
2023-04-19T19:40:53.548Z,99520.94
2023-04-19T19:43:26.838Z,99521.25
2023-04-19T19:45:54.814Z,99522.75
2023-04-19T19:48:22.876Z,99524.63
2023-04-19T19:53:22.308Z,99527.84
2023-04-19T19:55:52.692Z,99526.59
2023-04-19T19:58:39.381Z,99530.38
2023-04-19T20:01:10.366Z,99526.88
2023-04-19T20:03:39.418Z,99529.09
2023-04-19T20:08:44.505Z,99526.81
2023-04-19T20:11:14.009Z,99524.16
2023-04-19T20:13:42.276Z,99528.50
2023-04-19T20:16:10.985Z,99524.63
2023-04-19T20:18:39.484Z,99520.94
2023-04-19T20:21:08.477Z,99519.56
2023-04-19T20:23:39.830Z,99516.47
2023-04-19T20:26:08.187Z,99517.59
2023-04-19T20:28:36.894Z,99525.88
2023-04-19T20:31:05.312Z,99515.09
2023-04-19T20:33:34.033Z,99513.41
2023-04-19T20:36:03.927Z,99516.78
2023-04-19T20:38:32.854Z,99519.13
2023-04-19T20:41:01.346Z,99515.19
2023-04-19T20:43:29.804Z,99509.72
2023-04-19T20:45:58.119Z,99514.53
2023-04-19T20:48:26.311Z,99511.88
2023-04-19T20:50:54.439Z,99517.06
2023-04-19T20:53:22.578Z,99519.88
2023-04-19T20:55:51.629Z,99516.50
2023-04-19T20:58:20.190Z,99514.53
2023-04-19T21:00:50.151Z,99519.94
2023-04-19T21:03:18.161Z,99527.47
2023-04-19T21:05:46.497Z,99515.00
2023-04-19T21:08:16.231Z,99521.84
2023-04-19T21:10:44.315Z,99515.00
2023-04-19T21:13:12.275Z,99518.50
2023-04-19T21:15:40.885Z,99516.50
2023-04-19T21:18:09.070Z,99521.44
2023-04-19T21:20:38.353Z,99518.78
2023-04-19T21:23:06.929Z,99523.28
2023-04-19T21:25:35.478Z,99520.31
2023-04-19T21:28:03.985Z,99518.22
2023-04-19T21:30:32.345Z,99532.78
2023-04-19T21:33:00.605Z,99523.00
2023-04-19T21:35:28.685Z,99521.03
2023-04-19T21:37:57.612Z,99529.97
2023-04-19T21:40:25.935Z,99528.31
2023-04-19T21:42:54.141Z,99529.97
2023-04-19T21:45:22.554Z,99531.13
2023-04-19T21:47:51.523Z,99535.06
2023-04-19T21:50:19.809Z,99541.09
2023-04-19T21:52:47.955Z,99542.50
2023-04-19T21:55:15.966Z,99536.72
2023-04-19T21:57:44.501Z,99543.50
2023-04-19T22:00:13.402Z,99541.81
2023-04-19T22:02:41.607Z,99537.34
2023-04-19T22:05:10.009Z,99536.34
2023-04-19T22:07:40.271Z,99537.03
2023-04-19T22:10:09.066Z,99538.88
2023-04-19T22:12:45.114Z,99532.72
2023-04-19T22:15:19.871Z,99536.50
2023-04-19T22:17:48.224Z,99536.94
2023-04-19T22:20:16.134Z,99535.78
2023-04-19T22:22:44.431Z,99539.59
2023-04-19T22:25:12.840Z,99538.19
2023-04-19T22:27:40.762Z,99538.34
2023-04-19T22:30:09.109Z,99535.25
2023-04-19T22:32:37.280Z,99535.69
2023-04-19T22:35:05.891Z,99535.25
2023-04-19T22:37:33.857Z,99528.81
2023-04-19T22:40:02.292Z,99535.94
2023-04-19T22:42:30.624Z,99532.88
2023-04-19T22:44:58.480Z,99532.19
2023-04-19T22:47:26.669Z,99534.19
2023-04-19T22:49:54.877Z,99531.38
2023-04-19T22:52:23.053Z,99542.44
2023-04-19T22:54:51.226Z,99542.50
2023-04-19T22:57:19.097Z,99538.44
2023-04-19T22:59:46.977Z,99537.75
2023-04-19T23:02:15.099Z,99545.72
2023-04-19T23:04:44.819Z,99555.13
2023-04-19T23:07:13.405Z,99541.44
2023-04-19T23:09:41.563Z,99549.56
2023-04-19T23:12:10.204Z,99547.47
2023-04-19T23:14:38.944Z,99549.69
2023-04-19T23:17:07.544Z,99542.97
2023-04-19T23:19:37.626Z,99540.31
2023-04-19T23:22:05.797Z,99545.22
2023-04-19T23:24:36.619Z,99533.91
2023-04-19T23:27:05.219Z,99539.47
2023-04-19T23:29:33.079Z,99531.69
2023-04-19T23:32:04.352Z,99534.78
2023-04-19T23:34:32.458Z,99539.53
2023-04-19T23:37:00.482Z,99537.44
2023-04-19T23:39:28.632Z,99536.75
2023-04-19T23:41:57.997Z,99536.34
2023-04-19T23:44:27.419Z,99534.38
2023-04-19T23:46:55.977Z,99538.13
2023-04-19T23:49:23.977Z,99526.94
2023-04-19T23:51:51.990Z,99523.88
2023-04-19T23:54:22.612Z,99527.81
2023-04-19T23:56:50.744Z,99528.09
2023-04-19T23:59:19.276Z,99523.34
